• Join FlightAware (Why Join?)
  • Login
  • US Flag 
08:59AM EDT


 

Airport Tracker/Info


-or-


 

Live Flight TrackerFlight Track Log ✈ EJA929 ✈ 11-Aug-2013 ✈ KSBA - KCRQ

Flight Track Log - Related Links

Times and Time Zones

All times are in EDT time to prevent confusion due to time zone crossing. See the EJA929 flight status page for this flight to view local times or setup timezone preferences in your user account.

Time Position Orientation Groundspeed Altitude Reporting Facility
EDT Latitude Longitude Course Direction KTS MPH feet Rate Location/Type
11:51AM 34.4278 -119.8297 137° Southeast 177 204 700  Level Los Angeles Center
11:52AM 34.3792 -119.7744 137° Southeast 223 257 4,500 3,360 Climbing Los Angeles Center
11:53AM 34.2886 -119.7275 157° South 275 316 8,400 2,880 Climbing Los Angeles Center
11:54AM 34.2139 -119.6822 153° Southeast 294 338 10,500 1,260 Climbing Los Angeles Center
11:55AM 34.1636 -119.6128 131° Southeast 345 397 11,000 240 Climbing Los Angeles Center
11:56AM 34.0964 -119.5092 128° Southeast 387 445 11,000  Level Los Angeles Center
11:57AM 34.0133 -119.3808 128° Southeast 403 464 11,000  Level Los Angeles Center
11:58AM 33.9311 -119.2544 128° Southeast 400 460 11,000  Level Los Angeles Center
11:59AM 33.8625 -119.1497 128° Southeast 400 460 11,000  Level Los Angeles Center
12:01PM 33.7931 -119.0458 129° Southeast 401 461 11,000  Level Los Angeles Center
12:02PM 33.7100 -118.9217 129° Southeast 399 459 11,000  Level Los Angeles Center
12:03PM 33.6408 -118.8175 129° Southeast 401 461 11,000  Level Los Angeles Center
12:04PM 33.5717 -118.7144 129° Southeast 401 461 11,000  Level Los Angeles Center
12:05PM 33.4889 -118.5917 129° Southeast 399 459 11,000  Level Los Angeles Center
12:06PM 33.4203 -118.4883 128° Southeast 401 461 11,000  Level Los Angeles Center
12:07PM 33.3683 -118.3744 119° Southeast 405 466 11,000  Level Los Angeles Center
12:08PM 33.3511 -118.2444 99° East 401 461 11,000  Level Los Angeles Center
12:09PM 33.3361 -118.1325 99° East 345 397 11,000 -1,140 Level Los Angeles Center
12:10PM 33.3219 -118.0197 99° East 294 338 8,700 -2,100 Descending Los Angeles Center
12:11PM 33.3100 -117.9250 99° East 290 334 6,700 -1,740 Descending Los Angeles Center
12:12PM 33.2972 -117.8325 99° East 287 330 5,200 -840 Descending Los Angeles Center
12:13PM 33.2850 -117.7417 99° East 281 323 5,000 -120 Descending Los Angeles Center
12:14PM 33.2667 -117.6167 100° East 277 319 5,000  Level Southern California TRACON
12:15PM 33.2500 -117.5167 101° East 273 314 5,000 -180 Level Southern California TRACON
12:16PM 33.2500 -117.4333 90° East 264 304 4,700 -300 Descending Southern California TRACON
12:17PM 33.2333 -117.3500 103° East 278 320 4,500 -120 Descending Southern California TRACON
12:18PM 33.2167 -117.2500 101° East 268 308 4,500  Level Southern California TRACON
12:19PM 33.2167 -117.1833 90° East 222 255 4,500  Level Southern California TRACON
12:20PM 33.2000 -117.1167 107° East 206 237 4,500 -300 Level Southern California TRACON
12:21PM 33.1667 -117.0833 140° Southeast 182 209 4,000 -840 Descending Southern California TRACON
12:22PM 33.1500 -117.1333 248° West 168 193 2,900 -1,080 Descending Southern California TRACON
12:23PM 33.1500 -117.1833 270° West 162 186 1,900 -900 Descending Southern California TRACON
12:24PM 33.1333 -117.2333 248° West 129 148 1,200 -720 Descending Southern California TRACON
12:25PM 33.1333 -117.2667 270° West 126 145 500 -720 Descending Southern California TRACON